sensor_id;sensor_type;location;lat;lon;timestamp;pressure;altitude;pressure_sealevel;temperature;humidity
12221;BME280;6173;42.024;23.096;2022-07-06T00:02:24;96598.50;;;21.43;100.00
12221;BME280;6173;42.024;23.096;2022-07-06T00:04:51;96591.56;;;21.42;100.00
12221;BME280;6173;42.024;23.096;2022-07-06T00:07:18;96580.66;;;21.35;100.00
12221;BME280;6173;42.024;23.096;2022-07-06T00:09:46;96590.78;;;21.41;100.00
12221;BME280;6173;42.024;23.096;2022-07-06T00:12:14;96603.88;;;21.43;100.00
12221;BME280;6173;42.024;23.096;2022-07-06T00:14:41;96604.19;;;21.38;100.00
12221;BME280;6173;42.024;23.096;2022-07-06T00:17:08;96609.16;;;21.36;100.00
12221;BME280;6173;42.024;23.096;2022-07-06T00:19:34;96608.19;;;21.28;100.00
12221;BME280;6173;42.024;23.096;2022-07-06T00:22:01;96607.41;;;21.28;100.00
12221;BME280;6173;42.024;23.096;2022-07-06T00:24:28;96608.06;;;21.21;100.00
12221;BME280;6173;42.024;23.096;2022-07-06T00:26:56;96610.13;;;21.08;100.00
12221;BME280;6173;42.024;23.096;2022-07-06T00:29:23;96610.28;;;20.96;100.00
12221;BME280;6173;42.024;23.096;2022-07-06T00:31:50;96617.94;;;20.94;100.00
12221;BME280;6173;42.024;23.096;2022-07-06T00:34:17;96612.19;;;20.96;100.00
12221;BME280;6173;42.024;23.096;2022-07-06T00:36:43;96609.69;;;20.87;100.00
12221;BME280;6173;42.024;23.096;2022-07-06T00:39:10;96613.16;;;20.87;100.00
12221;BME280;6173;42.024;23.096;2022-07-06T00:41:37;96604.94;;;20.80;100.00
12221;BME280;6173;42.024;23.096;2022-07-06T00:44:08;96603.41;;;20.79;100.00
12221;BME280;6173;42.024;23.096;2022-07-06T00:46:35;96605.22;;;20.75;100.00
12221;BME280;6173;42.024;23.096;2022-07-06T00:49:02;96594.56;;;20.63;100.00
12221;BME280;6173;42.024;23.096;2022-07-06T00:51:31;96590.09;;;20.51;100.00
12221;BME280;6173;42.024;23.096;2022-07-06T00:53:59;96590.78;;;20.48;100.00
12221;BME280;6173;42.024;23.096;2022-07-06T00:56:29;96592.00;;;20.51;100.00
12221;BME280;6173;42.024;23.096;2022-07-06T00:58:56;96586.38;;;20.40;100.00
12221;BME280;6173;42.024;23.096;2022-07-06T01:01:24;96592.78;;;20.51;100.00
12221;BME280;6173;42.024;23.096;2022-07-06T01:03:51;96587.50;;;20.55;100.00
12221;BME280;6173;42.024;23.096;2022-07-06T01:06:17;96562.78;;;20.49;100.00
12221;BME280;6173;42.024;23.096;2022-07-06T01:08:44;96576.72;;;20.55;100.00
12221;BME280;6173;42.024;23.096;2022-07-06T01:11:11;96575.44;;;20.49;100.00
12221;BME280;6173;42.024;23.096;2022-07-06T01:13:39;96578.97;;;20.53;100.00
12221;BME280;6173;42.024;23.096;2022-07-06T01:16:06;96587.31;;;20.48;100.00
12221;BME280;6173;42.024;23.096;2022-07-06T01:18:35;96592.44;;;20.37;100.00
12221;BME280;6173;42.024;23.096;2022-07-06T01:21:08;96596.13;;;20.29;100.00
12221;BME280;6173;42.024;23.096;2022-07-06T01:23:39;96585.88;;;20.19;100.00
12221;BME280;6173;42.024;23.096;2022-07-06T01:26:09;96596.97;;;20.33;100.00
12221;BME280;6173;42.024;23.096;2022-07-06T01:28:36;96583.19;;;20.34;100.00
12221;BME280;6173;42.024;23.096;2022-07-06T01:31:03;96588.56;;;20.34;100.00
12221;BME280;6173;42.024;23.096;2022-07-06T01:33:29;96590.13;;;20.35;100.00
12221;BME280;6173;42.024;23.096;2022-07-06T01:35:56;96585.50;;;20.36;100.00
12221;BME280;6173;42.024;23.096;2022-07-06T01:38:24;96586.41;;;20.24;100.00
12221;BME280;6173;42.024;23.096;2022-07-06T01:40:51;96586.56;;;20.31;100.00
12221;BME280;6173;42.024;23.096;2022-07-06T01:43:18;96590.81;;;20.32;100.00
12221;BME280;6173;42.024;23.096;2022-07-06T01:45:45;96584.66;;;20.32;100.00
12221;BME280;6173;42.024;23.096;2022-07-06T01:48:11;96587.69;;;20.30;100.00
12221;BME280;6173;42.024;23.096;2022-07-06T01:50:38;96581.25;;;20.35;100.00
12221;BME280;6173;42.024;23.096;2022-07-06T01:53:05;96582.22;;;20.27;100.00
12221;BME280;6173;42.024;23.096;2022-07-06T01:55:33;96580.66;;;20.26;100.00
12221;BME280;6173;42.024;23.096;2022-07-06T01:58:00;96581.44;;;20.26;100.00
12221;BME280;6173;42.024;23.096;2022-07-06T02:00:27;96581.31;;;20.19;100.00
12221;BME280;6173;42.024;23.096;2022-07-06T02:02:53;96594.03;;;20.22;100.00
12221;BME280;6173;42.024;23.096;2022-07-06T02:05:20;96592.22;;;20.26;100.00
12221;BME280;6173;42.024;23.096;2022-07-06T02:07:47;96588.47;;;20.31;100.00
12221;BME280;6173;42.024;23.096;2022-07-06T02:10:14;96593.44;;;20.29;100.00
12221;BME280;6173;42.024;23.096;2022-07-06T02:12:42;96591.44;;;20.26;100.00
12221;BME280;6173;42.024;23.096;2022-07-06T02:15:09;96597.59;;;20.26;100.00
12221;BME280;6173;42.024;23.096;2022-07-06T02:17:36;96609.63;;;20.32;100.00
12221;BME280;6173;42.024;23.096;2022-07-06T02:20:04;96602.59;;;20.28;100.00
12221;BME280;6173;42.024;23.096;2022-07-06T02:22:31;96602.44;;;20.36;100.00
12221;BME280;6173;42.024;23.096;2022-07-06T02:24:57;96607.44;;;20.38;100.00
12221;BME280;6173;42.024;23.096;2022-07-06T02:27:24;96617.38;;;20.34;100.00
12221;BME280;6173;42.024;23.096;2022-07-06T02:29:52;96611.38;;;20.40;100.00
12221;BME280;6173;42.024;23.096;2022-07-06T02:32:19;96609.91;;;20.27;100.00
12221;BME280;6173;42.024;23.096;2022-07-06T02:38:08;96609.06;;;19.92;100.00
12221;BME280;6173;42.024;23.096;2022-07-06T02:40:35;96612.09;;;20.06;100.00
12221;BME280;6173;42.024;23.096;2022-07-06T02:43:02;96616.25;;;20.03;100.00
12221;BME280;6173;42.024;23.096;2022-07-06T02:45:30;96610.81;;;20.00;100.00
12221;BME280;6173;42.024;23.096;2022-07-06T02:47:57;96604.56;;;19.80;100.00
12221;BME280;6173;42.024;23.096;2022-07-06T02:50:24;96607.75;;;19.70;100.00
12221;BME280;6173;42.024;23.096;2022-07-06T02:52:51;96618.59;;;19.73;100.00
12221;BME280;6173;42.024;23.096;2022-07-06T02:58:39;96619.66;;;19.56;100.00
12221;BME280;6173;42.024;23.096;2022-07-06T03:01:07;96621.28;;;19.45;100.00
12221;BME280;6173;42.024;23.096;2022-07-06T03:03:34;96620.41;;;19.41;100.00
12221;BME280;6173;42.024;23.096;2022-07-06T03:06:01;96616.69;;;19.46;100.00
12221;BME280;6173;42.024;23.096;2022-07-06T03:08:27;96622.56;;;19.35;100.00
12221;BME280;6173;42.024;23.096;2022-07-06T03:10:54;96622.22;;;19.37;100.00
12221;BME280;6173;42.024;23.096;2022-07-06T03:13:21;96624.88;;;19.49;100.00
12221;BME280;6173;42.024;23.096;2022-07-06T03:15:47;96624.50;;;19.51;100.00
12221;BME280;6173;42.024;23.096;2022-07-06T03:18:16;96642.63;;;19.54;100.00
12221;BME280;6173;42.024;23.096;2022-07-06T03:20:42;96635.44;;;19.58;100.00
12221;BME280;6173;42.024;23.096;2022-07-06T03:23:09;96650.13;;;19.60;100.00
12221;BME280;6173;42.024;23.096;2022-07-06T03:25:36;96651.47;;;19.54;100.00
12221;BME280;6173;42.024;23.096;2022-07-06T03:28:03;96652.25;;;19.55;100.00
12221;BME280;6173;42.024;23.096;2022-07-06T03:30:30;96635.59;;;19.49;100.00
12221;BME280;6173;42.024;23.096;2022-07-06T03:32:57;96646.88;;;19.55;100.00
12221;BME280;6173;42.024;23.096;2022-07-06T03:35:25;96649.47;;;19.51;100.00
12221;BME280;6173;42.024;23.096;2022-07-06T03:37:52;96636.63;;;19.45;100.00
12221;BME280;6173;42.024;23.096;2022-07-06T03:40:19;96653.09;;;19.59;100.00
12221;BME280;6173;42.024;23.096;2022-07-06T03:42:45;96651.69;;;19.61;100.00
12221;BME280;6173;42.024;23.096;2022-07-06T03:45:12;96608.66;;;19.46;100.00
12221;BME280;6173;42.024;23.096;2022-07-06T03:47:39;96624.41;;;19.59;100.00
12221;BME280;6173;42.024;23.096;2022-07-06T03:50:07;96648.25;;;19.77;100.00
12221;BME280;6173;42.024;23.096;2022-07-06T03:52:36;96625.78;;;19.69;100.00
12221;BME280;6173;42.024;23.096;2022-07-06T03:55:07;96647.88;;;19.78;100.00
12221;BME280;6173;42.024;23.096;2022-07-06T03:57:34;96606.44;;;19.63;100.00
12221;BME280;6173;42.024;23.096;2022-07-06T04:00:01;96644.88;;;19.80;100.00
12221;BME280;6173;42.024;23.096;2022-07-06T04:02:27;96644.94;;;19.83;100.00
12221;BME280;6173;42.024;23.096;2022-07-06T04:04:54;96648.97;;;19.90;100.00
12221;BME280;6173;42.024;23.096;2022-07-06T04:07:21;96646.19;;;20.02;100.00
12221;BME280;6173;42.024;23.096;2022-07-06T04:09:49;96646.00;;;20.10;100.00
12221;BME280;6173;42.024;23.096;2022-07-06T04:12:16;96654.59;;;20.16;100.00
12221;BME280;6173;42.024;23.096;2022-07-06T04:14:43;96648.00;;;20.13;100.00
12221;BME280;6173;42.024;23.096;2022-07-06T04:17:10;96648.44;;;20.31;100.00
12221;BME280;6173;42.024;23.096;2022-07-06T04:19:50;96655.72;;;20.15;100.00
12221;BME280;6173;42.024;23.096;2022-07-06T04:22:17;96653.19;;;20.22;100.00
12221;BME280;6173;42.024;23.096;2022-07-06T04:24:44;96655.47;;;20.36;100.00
12221;BME280;6173;42.024;23.096;2022-07-06T04:27:12;96652.78;;;20.52;100.00
12221;BME280;6173;42.024;23.096;2022-07-06T04:29:39;96645.06;;;20.50;100.00
12221;BME280;6173;42.024;23.096;2022-07-06T04:32:06;96654.41;;;20.56;100.00
12221;BME280;6173;42.024;23.096;2022-07-06T04:34:33;96650.75;;;20.64;100.00
12221;BME280;6173;42.024;23.096;2022-07-06T04:37:00;96652.63;;;20.80;100.00
12221;BME280;6173;42.024;23.096;2022-07-06T04:39:27;96658.00;;;20.80;100.00
12221;BME280;6173;42.024;23.096;2022-07-06T04:41:56;96652.47;;;20.73;100.00
12221;BME280;6173;42.024;23.096;2022-07-06T04:44:24;96660.66;;;20.60;100.00
12221;BME280;6173;42.024;23.096;2022-07-06T04:46:51;96670.41;;;20.49;100.00
12221;BME280;6173;42.024;23.096;2022-07-06T04:49:23;96651.22;;;20.35;100.00
12221;BME280;6173;42.024;23.096;2022-07-06T04:51:53;96678.13;;;20.51;100.00
12221;BME280;6173;42.024;23.096;2022-07-06T04:54:19;96677.94;;;20.59;100.00
12221;BME280;6173;42.024;23.096;2022-07-06T04:56:46;96674.28;;;20.52;100.00
12221;BME280;6173;42.024;23.096;2022-07-06T04:59:13;96681.94;;;20.50;100.00
12221;BME280;6173;42.024;23.096;2022-07-06T05:01:41;96681.22;;;20.37;100.00
12221;BME280;6173;42.024;23.096;2022-07-06T05:04:08;96681.19;;;20.49;100.00
12221;BME280;6173;42.024;23.096;2022-07-06T05:06:35;96680.91;;;20.54;100.00
12221;BME280;6173;42.024;23.096;2022-07-06T05:09:02;96678.28;;;20.58;100.00
12221;BME280;6173;42.024;23.096;2022-07-06T05:11:29;96675.13;;;20.72;100.00
12221;BME280;6173;42.024;23.096;2022-07-06T05:13:56;96665.41;;;20.67;100.00
12221;BME280;6173;42.024;23.096;2022-07-06T05:16:23;96684.38;;;20.90;100.00
12221;BME280;6173;42.024;23.096;2022-07-06T05:18:51;96683.25;;;20.91;100.00
12221;BME280;6173;42.024;23.096;2022-07-06T05:21:18;96684.47;;;20.94;100.00
12221;BME280;6173;42.024;23.096;2022-07-06T05:23:44;96686.25;;;21.05;100.00
12221;BME280;6173;42.024;23.096;2022-07-06T05:26:11;96689.59;;;21.18;100.00
12221;BME280;6173;42.024;23.096;2022-07-06T05:28:38;96684.00;;;21.27;100.00
12221;BME280;6173;42.024;23.096;2022-07-06T05:31:05;96673.03;;;21.35;100.00
12221;BME280;6173;42.024;23.096;2022-07-06T05:33:32;96691.13;;;21.54;100.00
12221;BME280;6173;42.024;23.096;2022-07-06T05:36:00;96672.25;;;21.54;100.00
12221;BME280;6173;42.024;23.096;2022-07-06T05:38:27;96690.75;;;21.75;100.00
12221;BME280;6173;42.024;23.096;2022-07-06T05:40:54;96684.00;;;21.85;100.00
12221;BME280;6173;42.024;23.096;2022-07-06T05:43:22;96684.66;;;22.01;100.00
12221;BME280;6173;42.024;23.096;2022-07-06T05:45:55;96685.47;;;22.25;100.00
12221;BME280;6173;42.024;23.096;2022-07-06T05:48:22;96696.28;;;22.05;100.00
12221;BME280;6173;42.024;23.096;2022-07-06T05:51:08;96685.00;;;22.19;100.00
12221;BME280;6173;42.024;23.096;2022-07-06T05:53:35;96693.97;;;22.27;100.00
12221;BME280;6173;42.024;23.096;2022-07-06T05:56:02;96684.34;;;22.26;100.00
12221;BME280;6173;42.024;23.096;2022-07-06T05:58:29;96685.28;;;22.37;100.00
12221;BME280;6173;42.024;23.096;2022-07-06T06:00:56;96680.63;;;22.34;100.00
12221;BME280;6173;42.024;23.096;2022-07-06T06:03:23;96681.09;;;22.39;100.00
12221;BME280;6173;42.024;23.096;2022-07-06T06:05:50;96687.03;;;22.49;100.00
12221;BME280;6173;42.024;23.096;2022-07-06T06:08:18;96675.28;;;22.64;100.00
12221;BME280;6173;42.024;23.096;2022-07-06T06:10:45;96680.31;;;22.88;100.00
12221;BME280;6173;42.024;23.096;2022-07-06T06:13:12;96678.16;;;22.75;100.00
12221;BME280;6173;42.024;23.096;2022-07-06T06:15:38;96674.41;;;22.83;100.00
12221;BME280;6173;42.024;23.096;2022-07-06T06:18:05;96670.66;;;22.64;100.00
12221;BME280;6173;42.024;23.096;2022-07-06T06:20:32;96661.28;;;22.32;100.00
12221;BME280;6173;42.024;23.096;2022-07-06T06:22:59;96658.06;;;22.23;100.00
12221;BME280;6173;42.024;23.096;2022-07-06T06:25:32;96664.97;;;22.43;100.00
12221;BME280;6173;42.024;23.096;2022-07-06T06:27:59;96658.50;;;22.51;100.00
12221;BME280;6173;42.024;23.096;2022-07-06T06:30:26;96657.84;;;22.58;100.00
12221;BME280;6173;42.024;23.096;2022-07-06T06:33:05;96656.97;;;22.27;100.00
12221;BME280;6173;42.024;23.096;2022-07-06T06:35:31;96654.78;;;22.33;100.00
12221;BME280;6173;42.024;23.096;2022-07-06T06:37:58;96647.81;;;22.32;100.00
12221;BME280;6173;42.024;23.096;2022-07-06T06:40:25;96653.25;;;22.35;100.00
12221;BME280;6173;42.024;23.096;2022-07-06T06:42:53;96657.81;;;22.31;100.00
12221;BME280;6173;42.024;23.096;2022-07-06T06:45:20;96649.34;;;22.10;100.00
12221;BME280;6173;42.024;23.096;2022-07-06T06:47:47;96647.81;;;22.32;100.00
12221;BME280;6173;42.024;23.096;2022-07-06T06:50:13;96646.69;;;22.33;100.00
12221;BME280;6173;42.024;23.096;2022-07-06T06:52:40;96645.09;;;22.32;100.00
12221;BME280;6173;42.024;23.096;2022-07-06T06:55:08;96637.75;;;22.29;100.00
12221;BME280;6173;42.024;23.096;2022-07-06T06:57:35;96627.66;;;22.26;100.00
12221;BME280;6173;42.024;23.096;2022-07-06T07:00:05;96598.97;;;22.40;100.00
12221;BME280;6173;42.024;23.096;2022-07-06T07:02:32;96649.59;;;22.74;100.00
12221;BME280;6173;42.024;23.096;2022-07-06T07:04:59;96643.88;;;22.79;100.00
12221;BME280;6173;42.024;23.096;2022-07-06T07:07:26;96639.25;;;22.79;100.00
12221;BME280;6173;42.024;23.096;2022-07-06T07:09:53;96630.16;;;22.91;100.00
12221;BME280;6173;42.024;23.096;2022-07-06T07:12:20;96652.47;;;23.14;100.00
12221;BME280;6173;42.024;23.096;2022-07-06T07:14:47;96647.44;;;23.13;100.00
12221;BME280;6173;42.024;23.096;2022-07-06T07:17:15;96643.41;;;23.00;100.00
12221;BME280;6173;42.024;23.096;2022-07-06T07:19:42;96638.06;;;23.07;100.00
12221;BME280;6173;42.024;23.096;2022-07-06T07:22:09;96640.47;;;23.12;100.00
12221;BME280;6173;42.024;23.096;2022-07-06T07:24:36;96638.97;;;23.14;100.00
12221;BME280;6173;42.024;23.096;2022-07-06T07:27:03;96640.09;;;23.13;100.00
12221;BME280;6173;42.024;23.096;2022-07-06T07:29:30;96644.31;;;23.11;100.00
12221;BME280;6173;42.024;23.096;2022-07-06T07:31:57;96628.53;;;23.16;100.00
12221;BME280;6173;42.024;23.096;2022-07-06T07:34:25;96634.00;;;23.20;100.00
12221;BME280;6173;42.024;23.096;2022-07-06T07:36:52;96640.28;;;23.28;100.00
12221;BME280;6173;42.024;23.096;2022-07-06T07:39:18;96632.97;;;23.32;100.00
12221;BME280;6173;42.024;23.096;2022-07-06T07:41:45;96629.16;;;23.33;100.00
12221;BME280;6173;42.024;23.096;2022-07-06T07:44:12;96621.16;;;23.43;100.00
12221;BME280;6173;42.024;23.096;2022-07-06T07:46:39;96628.53;;;23.50;100.00
12221;BME280;6173;42.024;23.096;2022-07-06T07:49:05;96635.06;;;23.45;100.00
12221;BME280;6173;42.024;23.096;2022-07-06T07:51:34;96628.16;;;23.52;100.00
12221;BME280;6173;42.024;23.096;2022-07-06T07:54:01;96641.00;;;23.58;100.00
12221;BME280;6173;42.024;23.096;2022-07-06T07:56:28;96645.78;;;23.68;100.00
12221;BME280;6173;42.024;23.096;2022-07-06T07:58:54;96640.47;;;23.79;100.00
12221;BME280;6173;42.024;23.096;2022-07-06T08:01:21;96635.16;;;23.90;100.00
12221;BME280;6173;42.024;23.096;2022-07-06T08:03:48;96645.38;;;24.07;100.00
12221;BME280;6173;42.024;23.096;2022-07-06T08:06:15;96637.56;;;23.98;100.00
12221;BME280;6173;42.024;23.096;2022-07-06T08:08:43;96651.56;;;24.11;100.00
12221;BME280;6173;42.024;23.096;2022-07-06T08:11:10;96647.03;;;24.26;100.00
12221;BME280;6173;42.024;23.096;2022-07-06T08:13:36;96652.84;;;24.24;100.00
12221;BME280;6173;42.024;23.096;2022-07-06T08:16:04;96646.22;;;24.18;100.00
12221;BME280;6173;42.024;23.096;2022-07-06T08:18:30;96630.97;;;23.99;100.00
12221;BME280;6173;42.024;23.096;2022-07-06T08:20:57;96645.47;;;24.21;100.00
12221;BME280;6173;42.024;23.096;2022-07-06T08:23:24;96640.19;;;24.36;100.00
12221;BME280;6173;42.024;23.096;2022-07-06T08:25:52;96623.19;;;24.39;100.00
12221;BME280;6173;42.024;23.096;2022-07-06T08:28:19;96619.78;;;24.49;100.00
12221;BME280;6173;42.024;23.096;2022-07-06T08:30:46;96625.59;;;24.51;100.00
12221;BME280;6173;42.024;23.096;2022-07-06T08:33:12;96628.75;;;24.60;100.00
12221;BME280;6173;42.024;23.096;2022-07-06T08:35:39;96622.16;;;24.61;100.00
12221;BME280;6173;42.024;23.096;2022-07-06T08:38:06;96635.41;;;24.73;100.00
12221;BME280;6173;42.024;23.096;2022-07-06T08:40:34;96632.00;;;24.84;100.00
12221;BME280;6173;42.024;23.096;2022-07-06T08:43:02;96640.88;;;24.84;100.00
12221;BME280;6173;42.024;23.096;2022-07-06T08:45:29;96606.38;;;24.67;100.00
12221;BME280;6173;42.024;23.096;2022-07-06T08:47:59;96635.25;;;25.07;100.00
12221;BME280;6173;42.024;23.096;2022-07-06T08:50:30;96640.28;;;25.12;100.00
12221;BME280;6173;42.024;23.096;2022-07-06T08:52:57;96629.03;;;25.07;100.00
12221;BME280;6173;42.024;23.096;2022-07-06T08:55:25;96648.72;;;24.96;100.00
12221;BME280;6173;42.024;23.096;2022-07-06T08:57:54;96643.28;;;24.93;100.00
12221;BME280;6173;42.024;23.096;2022-07-06T09:00:23;96633.22;;;25.00;100.00
12221;BME280;6173;42.024;23.096;2022-07-06T09:02:50;96611.94;;;24.99;100.00
12221;BME280;6173;42.024;23.096;2022-07-06T09:05:21;96634.53;;;25.24;100.00
12221;BME280;6173;42.024;23.096;2022-07-06T09:07:49;96636.03;;;25.15;100.00
12221;BME280;6173;42.024;23.096;2022-07-06T09:10:18;96641.50;;;25.29;100.00
12221;BME280;6173;42.024;23.096;2022-07-06T09:12:45;96633.84;;;25.60;100.00
12221;BME280;6173;42.024;23.096;2022-07-06T09:15:12;96656.72;;;25.59;100.00
12221;BME280;6173;42.024;23.096;2022-07-06T09:17:41;96643.09;;;25.41;100.00
12221;BME280;6173;42.024;23.096;2022-07-06T09:20:09;96621.41;;;25.37;100.00
12221;BME280;6173;42.024;23.096;2022-07-06T09:22:37;96647.78;;;25.47;100.00
12221;BME280;6173;42.024;23.096;2022-07-06T09:25:05;96652.44;;;25.54;100.00
12221;BME280;6173;42.024;23.096;2022-07-06T09:27:36;96639.69;;;25.62;100.00
12221;BME280;6173;42.024;23.096;2022-07-06T09:30:05;96637.38;;;25.71;100.00
12221;BME280;6173;42.024;23.096;2022-07-06T09:32:38;96638.94;;;25.72;100.00
12221;BME280;6173;42.024;23.096;2022-07-06T09:35:07;96630.84;;;25.86;100.00
12221;BME280;6173;42.024;23.096;2022-07-06T09:37:33;96622.69;;;25.79;100.00
12221;BME280;6173;42.024;23.096;2022-07-06T09:40:00;96628.53;;;25.92;100.00
12221;BME280;6173;42.024;23.096;2022-07-06T09:42:28;96619.22;;;26.11;100.00
12221;BME280;6173;42.024;23.096;2022-07-06T09:44:55;96618.44;;;26.17;100.00
12221;BME280;6173;42.024;23.096;2022-07-06T09:47:21;96604.88;;;26.07;100.00
12221;BME280;6173;42.024;23.096;2022-07-06T09:49:48;96601.78;;;25.97;100.00
12221;BME280;6173;42.024;23.096;2022-07-06T09:52:16;96601.38;;;26.06;100.00
12221;BME280;6173;42.024;23.096;2022-07-06T09:54:48;96600.97;;;26.15;100.00
12221;BME280;6173;42.024;23.096;2022-07-06T09:57:15;96592.44;;;26.23;100.00
12221;BME280;6173;42.024;23.096;2022-07-06T09:59:42;96604.44;;;26.58;100.00
12221;BME280;6173;42.024;23.096;2022-07-06T10:02:09;96607.97;;;26.51;100.00
12221;BME280;6173;42.024;23.096;2022-07-06T10:04:36;96595.16;;;26.20;100.00
12221;BME280;6173;42.024;23.096;2022-07-06T10:07:04;96592.06;;;26.36;100.00
12221;BME280;6173;42.024;23.096;2022-07-06T10:09:32;96592.84;;;26.36;100.00
12221;BME280;6173;42.024;23.096;2022-07-06T10:12:00;96591.25;;;26.60;100.00
12221;BME280;6173;42.024;23.096;2022-07-06T10:14:29;96600.56;;;26.66;100.00
12221;BME280;6173;42.024;23.096;2022-07-06T10:16:58;96593.97;;;26.35;100.00
12221;BME280;6173;42.024;23.096;2022-07-06T10:19:25;96599.03;;;26.44;100.00
12221;BME280;6173;42.024;23.096;2022-07-06T10:21:52;96587.38;;;26.58;100.00
12221;BME280;6173;42.024;23.096;2022-07-06T10:24:20;96574.53;;;26.76;100.00
12221;BME280;6173;42.024;23.096;2022-07-06T10:26:48;96589.66;;;26.73;100.00
12221;BME280;6173;42.024;23.096;2022-07-06T10:29:15;96592.72;;;26.90;100.00
12221;BME280;6173;42.024;23.096;2022-07-06T10:31:44;96583.72;;;27.07;100.00
12221;BME280;6173;42.024;23.096;2022-07-06T10:34:13;96578.28;;;27.07;100.00
12221;BME280;6173;42.024;23.096;2022-07-06T10:36:42;96582.91;;;27.21;100.00
12221;BME280;6173;42.024;23.096;2022-07-06T10:39:10;96572.41;;;27.23;100.00
12221;BME280;6173;42.024;23.096;2022-07-06T10:41:56;96567.00;;;27.16;100.00
12221;BME280;6173;42.024;23.096;2022-07-06T10:44:24;96578.69;;;27.02;100.00
12221;BME280;6173;42.024;23.096;2022-07-06T10:46:52;96564.38;;;26.91;100.00
12221;BME280;6173;42.024;23.096;2022-07-06T10:49:20;96585.66;;;27.10;100.00
12221;BME280;6173;42.024;23.096;2022-07-06T10:51:47;96587.22;;;27.11;100.00
12221;BME280;6173;42.024;23.096;2022-07-06T10:54:16;96571.69;;;27.04;100.00
12221;BME280;6173;42.024;23.096;2022-07-06T10:56:44;96563.47;;;27.22;100.00
12221;BME280;6173;42.024;23.096;2022-07-06T10:59:14;96573.09;;;27.41;100.00
12221;BME280;6173;42.024;23.096;2022-07-06T11:02:14;96570.44;;;27.30;100.00
12221;BME280;6173;42.024;23.096;2022-07-06T11:04:41;96576.16;;;27.50;100.00
12221;BME280;6173;42.024;23.096;2022-07-06T11:07:10;96569.19;;;27.46;100.00
12221;BME280;6173;42.024;23.096;2022-07-06T11:09:37;96575.25;;;27.68;100.00
12221;BME280;6173;42.024;23.096;2022-07-06T11:12:17;96573.03;;;27.48;100.00
12221;BME280;6173;42.024;23.096;2022-07-06T11:14:47;96560.88;;;27.67;100.00
12221;BME280;6173;42.024;23.096;2022-07-06T11:17:15;96563.50;;;27.85;100.00
12221;BME280;6173;42.024;23.096;2022-07-06T11:19:49;96566.00;;;28.10;100.00
12221;BME280;6173;42.024;23.096;2022-07-06T11:22:17;96570.16;;;28.25;99.63
12221;BME280;6173;42.024;23.096;2022-07-06T11:24:45;96564.63;;;28.32;97.10
12221;BME280;6173;42.024;23.096;2022-07-06T11:27:13;96565.31;;;28.44;98.41
12221;BME280;6173;42.024;23.096;2022-07-06T11:29:40;96558.25;;;28.50;95.82
12221;BME280;6173;42.024;23.096;2022-07-06T11:32:09;96562.63;;;28.40;96.84
12221;BME280;6173;42.024;23.096;2022-07-06T11:34:37;96562.47;;;28.13;94.64
12221;BME280;6173;42.024;23.096;2022-07-06T11:37:06;96535.31;;;28.06;94.94
12221;BME280;6173;42.024;23.096;2022-07-06T11:39:34;96547.00;;;28.03;96.96
12221;BME280;6173;42.024;23.096;2022-07-06T11:42:03;96536.78;;;28.14;95.21
12221;BME280;6173;42.024;23.096;2022-07-06T11:44:31;96517.22;;;28.26;93.88
12221;BME280;6173;42.024;23.096;2022-07-06T11:46:59;96514.56;;;28.57;94.57
12221;BME280;6173;42.024;23.096;2022-07-06T11:49:29;96513.22;;;28.72;88.49
12221;BME280;6173;42.024;23.096;2022-07-06T11:51:56;96505.16;;;28.62;88.41
12221;BME280;6173;42.024;23.096;2022-07-06T11:54:24;96519.25;;;28.56;84.08
12221;BME280;6173;42.024;23.096;2022-07-06T11:56:52;96482.41;;;29.83;73.25
12221;BME280;6173;42.024;23.096;2022-07-06T11:59:23;96515.16;;;31.46;54.79
12221;BME280;6173;42.024;23.096;2022-07-06T12:01:59;96498.63;;;33.28;42.44
12221;BME280;6173;42.024;23.096;2022-07-06T12:04:25;96500.63;;;33.53;40.84
12221;BME280;6173;42.024;23.096;2022-07-06T12:06:54;96495.25;;;34.09;39.03
12221;BME280;6173;42.024;23.096;2022-07-06T12:09:21;96502.44;;;35.16;37.89
12221;BME280;6173;42.024;23.096;2022-07-06T12:11:49;96502.22;;;36.74;34.46
12221;BME280;6173;42.024;23.096;2022-07-06T12:14:17;96490.59;;;36.33;34.46
12221;BME280;6173;42.024;23.096;2022-07-06T12:16:44;96506.22;;;37.34;32.65
12221;BME280;6173;42.024;23.096;2022-07-06T12:19:11;96509.69;;;38.63;30.65
12221;BME280;6173;42.024;23.096;2022-07-06T12:21:43;96508.34;;;36.78;31.96
12221;BME280;6173;42.024;23.096;2022-07-06T12:24:17;96516.50;;;36.54;32.35
12221;BME280;6173;42.024;23.096;2022-07-06T12:26:44;96506.31;;;37.82;30.53
12221;BME280;6173;42.024;23.096;2022-07-06T12:29:12;96504.16;;;38.10;30.67
12221;BME280;6173;42.024;23.096;2022-07-06T12:31:41;96496.38;;;38.91;29.09
12221;BME280;6173;42.024;23.096;2022-07-06T12:34:13;96501.66;;;40.82;26.96
12221;BME280;6173;42.024;23.096;2022-07-06T12:36:44;96478.81;;;41.67;25.76
12221;BME280;6173;42.024;23.096;2022-07-06T12:39:14;96495.28;;;39.18;27.98
12221;BME280;6173;42.024;23.096;2022-07-06T12:41:47;96492.75;;;39.50;27.95
12221;BME280;6173;42.024;23.096;2022-07-06T12:44:16;96473.69;;;39.58;27.62
12221;BME280;6173;42.024;23.096;2022-07-06T12:46:44;96444.97;;;40.42;26.30
12221;BME280;6173;42.024;23.096;2022-07-06T12:49:16;96486.69;;;38.18;28.23
12221;BME280;6173;42.024;23.096;2022-07-06T12:51:55;96471.56;;;37.90;28.36
12221;BME280;6173;42.024;23.096;2022-07-06T12:54:25;96465.97;;;38.52;28.19
12221;BME280;6173;42.024;23.096;2022-07-06T12:57:13;96466.66;;;39.97;26.91
12221;BME280;6173;42.024;23.096;2022-07-06T12:59:44;96476.94;;;39.71;27.58
12221;BME280;6173;42.024;23.096;2022-07-06T13:02:18;96459.56;;;39.55;26.90